Archival Weather

Republic

Farmingdale, New York (KFRG)

Report from: Saturday, February 24, 2024 3:53 PM EST
Current time: Friday, June 21, 2024 3:04 AM EDT

Current weather – Weather history – Daily summaries
Weather forecast

Temperature5.6°C (42.1°F)
Wind chill1.6°C (34.9°F)
Dew point-10.0°C (14.0°F)
Winds 12 kts (6.2 m/s, 13.8 mph) North (360°)
Wind gusts 18 kts (9.3 m/s, 20.7 mph)
Visibility10 mi. (16.1 km)
Clouds Sky clear
Altimeter29.73 in.Hg (1007 mB)
Relative humidity31 %
Density altitude-857 ft. (-261 m)
Sea-level pressure100.7 kPa (1007 mB, 29.72 in.Hg)
Remarks Automated weather observing station without precipitation discriminator
Pressure rising more quickly
Flight conditions Visual Meteorological Conditions
Raw dataKFRG 242053Z 36012G18KT 10SM CLR 06/M10 A2973 RMK AO1 SLP066 T00561100 53018
An error has occurred. This application may no longer respond until reloaded. Reload 🗙